»·PEaware :: UAL250 KSFO-CYVR

UAL250 :: KSFO-CYVR

FLIGHT INFORMATION

Flight Status: Arrived
Operator:
United Airlines
More flights by this operator :: More flights under this callsign
Pilot: Andrew J. (13363)
Aircraft: AIRBUS A320
(A320)
More flights by this aircraft type
Origin: KSFO San Francisco Intl
United States
Destination: CYVR Vancouver Intl
Canada
More flights between these airports :: More routes between these airports
Route: TRUKN2 DEDHD RBL 4407N12213W PAE GRIZZ6
File this flight plan on PilotEdge
Remarks: RMK / SIMBRIEF
Altitude:
(Current/Filed)
36,000ft
Speed:
(Current/Filed)
457kts
Departed: 02-Jan-20 05:12 PM
Arrived: 02-Jan-20 07:16 PM
Distance/Time
Traveled:
696nm/2:04
Distance/Time
To Go:
Arrived

Flight Plot

Page will automatically refresh every two minutes.

Flight plan parsing failed; only flown route is shown


Map Options




Map Legend


Flown Route
Filed Route
Departure Airport
Arrival Airport
Navaid (VOR, NDB)
Fix

Horizontal Profiles

Position Reports

Time Latitude Longitude Heading Altitude Ground
Speed
02-Jan-20 16:42 37.618644 -122.388049 158 32ft 0kts
02-Jan-20 16:43 37.618644 -122.388049 158 32ft 0kts
02-Jan-20 16:44 37.618644 -122.388049 158 32ft 0kts
02-Jan-20 16:45 37.618644 -122.388049 158 32ft 0kts
02-Jan-20 16:46 37.618644 -122.388049 158 32ft 0kts
02-Jan-20 16:47 37.618644 -122.388049 158 32ft 0kts
02-Jan-20 16:48 37.618644 -122.388049 158 32ft 0kts
02-Jan-20 16:49 37.618644 -122.388049 158 32ft 0kts
02-Jan-20 16:50 37.618644 -122.388049 158 32ft 0kts
02-Jan-20 16:51 37.618644 -122.388049 158 32ft 0kts
02-Jan-20 16:52 37.618645 -122.388049 158 32ft 0kts
02-Jan-20 16:53 37.618644 -122.388049 158 32ft 0kts
02-Jan-20 16:54 37.618644 -122.388049 158 32ft 0kts
02-Jan-20 16:55 37.618644 -122.388049 158 32ft 0kts
02-Jan-20 16:56 37.618645 -122.388049 158 32ft 0kts
02-Jan-20 16:57 37.618998 -122.388355 127 32ft 2kts
02-Jan-20 16:58 37.619052 -122.389027 55 32ft 2kts
02-Jan-20 16:59 37.619252 -122.389421 298 32ft 2kts
02-Jan-20 17:00 37.619266 -122.389453 298 32ft 0kts
02-Jan-20 17:01 37.619287 -122.389501 298 32ft 0kts
02-Jan-20 17:02 37.619896 -122.390956 297 32ft 10kts
02-Jan-20 17:03 37.622538 -122.390008 74 30ft 14kts
02-Jan-20 17:04 37.621778 -122.387064 118 32ft 4kts
02-Jan-20 17:05 37.620512 -122.384011 116 32ft 14kts
02-Jan-20 17:06 37.617518 -122.379430 175 31ft 21kts
02-Jan-20 17:07 37.611937 -122.382756 207 32ft 22kts
02-Jan-20 17:08 37.606519 -122.384436 129 31ft 17kts
02-Jan-20 17:09 37.606883 -122.381925 123 29ft 0kts
02-Jan-20 17:10 37.606499 -122.380951 55 27ft 1kts
02-Jan-20 17:11 37.628435 -122.366489 27 365ft 185kts
02-Jan-20 17:12 37.667424 -122.311071 53 2621ft 254kts
02-Jan-20 17:13 37.707306 -122.235262 52 5487ft 281kts
02-Jan-20 17:14 37.775604 -122.204856 3 8708ft 270kts
02-Jan-20 17:15 37.851429 -122.192637 4 11204ft 297kts
02-Jan-20 17:16 37.942116 -122.177742 5 12191ft 356kts
02-Jan-20 17:17 38.043699 -122.161033 4 13851ft 374kts
02-Jan-20 17:18 38.140695 -122.145069 4 15536ft 381kts
02-Jan-20 17:19 38.239052 -122.128804 4 17081ft 387kts
02-Jan-20 17:20 38.339992 -122.113890 357 18472ft 391kts
02-Jan-20 17:21 38.442721 -122.120147 354 19750ft 395kts
02-Jan-20 17:22 38.557617 -122.128029 353 21050ft 401kts
02-Jan-20 17:23 38.669686 -122.135745 353 22170ft 406kts
02-Jan-20 17:24 38.781423 -122.143462 353 23182ft 411kts
02-Jan-20 17:25 38.892153 -122.151136 353 24110ft 414kts
02-Jan-20 17:26 38.964415 -122.156156 352 24682ft 415kts
02-Jan-20 17:27 39.075953 -122.163928 351 25430ft 418kts
02-Jan-20 17:28 39.192322 -122.172056 351 26231ft 419kts
02-Jan-20 17:29 39.285018 -122.178555 351 26980ft 417kts
02-Jan-20 17:30 39.399483 -122.186604 351 27899ft 414kts
02-Jan-20 17:31 39.509375 -122.194354 351 28809ft 411kts
02-Jan-20 17:32 39.612496 -122.201647 350 29611ft 408kts
02-Jan-20 17:33 39.724207 -122.209575 350 30473ft 405kts
02-Jan-20 17:34 39.836170 -122.217545 350 31286ft 403kts
02-Jan-20 17:35 39.947461 -122.225492 350 32055ft 400kts
02-Jan-20 17:36 40.052828 -122.233042 349 32686ft 398kts
02-Jan-20 17:37 40.147299 -122.236113 352 33254ft 399kts
02-Jan-20 17:38 40.262302 -122.235589 352 33943ft 397kts
02-Jan-20 17:39 40.372298 -122.235086 352 34520ft 396kts
02-Jan-20 17:40 40.482210 -122.234578 352 35041ft 395kts
02-Jan-20 17:41 40.591862 -122.234066 352 35524ft 394kts
02-Jan-20 17:42 40.700880 -122.233559 352 35928ft 393kts
02-Jan-20 17:43 40.807463 -122.233059 352 36186ft 392kts
02-Jan-20 17:44 40.916463 -122.232547 352 36187ft 392kts
02-Jan-20 17:45 41.025351 -122.232033 351 36186ft 393kts
02-Jan-20 17:46 41.131477 -122.231536 350 36181ft 395kts
02-Jan-20 17:47 41.238133 -122.231025 350 36252ft 397kts
02-Jan-20 17:48 41.342012 -122.230527 350 36277ft 397kts
02-Jan-20 17:49 41.452384 -122.229999 350 36259ft 396kts
02-Jan-20 17:50 41.562206 -122.229473 350 36244ft 396kts
02-Jan-20 17:51 41.672328 -122.228942 350 36244ft 395kts
02-Jan-20 17:52 41.774625 -122.228448 350 36240ft 395kts
02-Jan-20 17:53 41.850789 -122.228079 350 36240ft 395kts
02-Jan-20 17:54 41.984305 -122.227429 350 36248ft 395kts
02-Jan-20 17:55 42.093940 -122.226897 350 36247ft 395kts
02-Jan-20 17:56 42.203880 -122.226357 350 36252ft 396kts
02-Jan-20 17:57 42.313101 -122.225821 350 36249ft 396kts
02-Jan-20 17:58 42.413086 -122.225328 350 36248ft 396kts
02-Jan-20 17:59 42.523011 -122.224784 350 36241ft 396kts
02-Jan-20 18:00 42.633370 -122.224238 350 36238ft 395kts
02-Jan-20 18:01 42.742911 -122.223695 350 36239ft 395kts
02-Jan-20 18:02 42.852906 -122.223142 350 36239ft 395kts
02-Jan-20 18:03 42.962968 -122.222583 349 36261ft 394kts
02-Jan-20 18:04 43.072376 -122.222032 349 36275ft 393kts
02-Jan-20 18:05 43.181432 -122.221484 349 36271ft 393kts
02-Jan-20 18:06 43.291023 -122.220925 349 36254ft 394kts
02-Jan-20 18:07 43.400542 -122.220369 349 36211ft 394kts
02-Jan-20 18:08 43.510231 -122.219808 349 36164ft 394kts
02-Jan-20 18:09 43.619953 -122.219245 349 36160ft 394kts
02-Jan-20 18:10 43.729601 -122.218679 349 36160ft 393kts
02-Jan-20 18:11 43.838922 -122.218115 349 36157ft 393kts
02-Jan-20 18:12 43.948228 -122.217546 349 36157ft 393kts
02-Jan-20 18:13 44.052884 -122.217003 349 36155ft 393kts
02-Jan-20 18:14 44.157779 -122.217151 348 36162ft 393kts
02-Jan-20 18:15 44.267260 -122.218919 348 36171ft 394kts
02-Jan-20 18:16 44.376459 -122.220585 348 36167ft 394kts
02-Jan-20 18:17 44.486215 -122.222251 348 36167ft 393kts
02-Jan-20 18:18 44.590514 -122.223842 348 36161ft 392kts
02-Jan-20 18:19 44.693954 -122.225424 348 36160ft 392kts
02-Jan-20 18:20 44.803000 -122.227097 348 36160ft 392kts
02-Jan-20 18:21 44.912034 -122.228777 348 36162ft 392kts
02-Jan-20 18:22 45.020382 -122.230450 347 36167ft 391kts
02-Jan-20 18:23 45.119541 -122.231991 347 36177ft 391kts
02-Jan-20 18:24 45.226679 -122.233664 347 36174ft 391kts
02-Jan-20 18:26 45.335146 -122.235357 347 36174ft 391kts
02-Jan-20 18:27 45.443229 -122.237052 347 36173ft 390kts
02-Jan-20 18:28 45.551905 -122.238765 347 36166ft 389kts
02-Jan-20 18:29 45.652385 -122.240357 347 36155ft 389kts
02-Jan-20 18:30 45.755729 -122.241996 347 36165ft 389kts
02-Jan-20 18:31 45.863657 -122.243717 347 36162ft 389kts
02-Jan-20 18:32 45.971837 -122.245447 347 36166ft 389kts
02-Jan-20 18:33 46.079788 -122.247182 347 36146ft 389kts
02-Jan-20 18:34 46.163712 -122.248537 347 36154ft 390kts
02-Jan-20 18:35 46.272346 -122.250297 347 36152ft 391kts
02-Jan-20 18:36 46.380540 -122.252073 347 36099ft 390kts
02-Jan-20 18:37 46.488571 -122.253787 347 36060ft 390kts
02-Jan-20 18:38 46.596638 -122.255557 347 36041ft 389kts
02-Jan-20 18:39 46.704643 -122.257338 347 36042ft 389kts
02-Jan-20 18:40 46.812824 -122.259127 347 36041ft 390kts
02-Jan-20 18:41 46.920953 -122.260916 346 36047ft 390kts
02-Jan-20 18:42 47.029333 -122.262718 344 36047ft 390kts
02-Jan-20 18:43 47.128867 -122.264386 344 36053ft 392kts
02-Jan-20 18:44 47.239915 -122.266242 344 36076ft 392kts
02-Jan-20 18:44 47.329853 -122.267754 344 36084ft 392kts
02-Jan-20 18:46 47.456619 -122.269894 344 36085ft 392kts
02-Jan-20 18:47 47.564836 -122.271730 344 36087ft 390kts
02-Jan-20 18:47 47.654653 -122.273262 344 36072ft 391kts
02-Jan-20 18:49 47.779885 -122.275406 344 36063ft 391kts
02-Jan-20 18:50 47.887996 -122.277260 344 36066ft 390kts
02-Jan-20 18:50 47.974630 -122.293619 335 36063ft 373kts
02-Jan-20 18:52 48.092810 -122.327808 336 36057ft 373kts
02-Jan-20 18:52 48.176565 -122.352107 336 34284ft 377kts
02-Jan-20 18:53 48.281660 -122.382723 336 30441ft 405kts
02-Jan-20 18:54 48.395138 -122.415785 338 24048ft 443kts
02-Jan-20 18:55 48.512080 -122.450175 340 18561ft 420kts
02-Jan-20 18:56 48.622803 -122.482936 341 14151ft 378kts
02-Jan-20 18:57 48.714163 -122.517543 317 11783ft 309kts
02-Jan-20 18:58 48.769060 -122.608959 306 10928ft 292kts
02-Jan-20 18:59 48.821703 -122.700452 306 10813ft 292kts
02-Jan-20 19:00 48.874981 -122.793367 306 10690ft 292kts
02-Jan-20 19:01 48.928314 -122.886720 306 10566ft 292kts
02-Jan-20 19:02 48.981734 -122.980564 306 10441ft 294kts
02-Jan-20 19:03 49.031874 -123.068923 305 9964ft 255kts
02-Jan-20 19:04 49.075840 -123.148441 295 8974ft 247kts
02-Jan-20 19:05 49.093662 -123.242000 284 8000ft 242kts
02-Jan-20 19:06 49.110963 -123.341074 286 6972ft 240kts
02-Jan-20 19:07 49.128299 -123.440843 282 5936ft 249kts
02-Jan-20 19:08 49.162408 -123.525174 350 4978ft 249kts
02-Jan-20 19:09 49.222745 -123.491097 56 3988ft 226kts
02-Jan-20 19:10 49.230441 -123.420524 100 3372ft 171kts
02-Jan-20 19:11 49.222828 -123.354329 98 2292ft 148kts
02-Jan-20 19:12 49.215764 -123.293071 98 1359ft 139kts
02-Jan-20 19:13 49.209305 -123.237670 98 577ft 127kts
02-Jan-20 19:14 49.203531 -123.186855 97 33ft 112kts
02-Jan-20 19:15 49.199946 -123.166942 135 16ft 24kts
02-Jan-20 19:16 49.199552 -123.170258 279 16ft 13kts
02-Jan-20 19:17 49.198218 -123.172039 168 16ft 8kts
02-Jan-20 19:18 49.197299 -123.172943 304 16ft 3kts
02-Jan-20 19:19 49.197329 -123.173012 303 16ft 0kts
02-Jan-20 19:20 49.197329 -123.173012 303 16ft 0kts
02-Jan-20 19:21 49.197329 -123.173012 303 16ft 0kts
02-Jan-20 19:22 49.197329 -123.173012 303 16ft 0kts
02-Jan-20 19:23 49.197329 -123.173012 303 16ft 0kts
02-Jan-20 19:24 49.197329 -123.173012 303 16ft 0kts

Navigation Log

Ident Type
Flight plan parsing failed, navigation log unavailable